sensor_id;sensor_type;location;lat;lon;timestamp;pressure;altitude;pressure_sealevel;temperature;humidity
6343;BME280;3204;42.698;23.298;2023-02-22T00:01:00;94900.88;;;10.25;46.59
6343;BME280;3204;42.698;23.298;2023-02-22T00:03:32;94901.44;;;10.14;46.41
6343;BME280;3204;42.698;23.298;2023-02-22T00:06:01;94893.50;;;10.04;47.00
6343;BME280;3204;42.698;23.298;2023-02-22T00:08:31;94905.06;;;9.96;46.31
6343;BME280;3204;42.698;23.298;2023-02-22T00:11:00;94899.44;;;10.06;46.98
6343;BME280;3204;42.698;23.298;2023-02-22T00:13:27;94901.75;;;9.99;46.86
6343;BME280;3204;42.698;23.298;2023-02-22T00:15:56;94900.56;;;9.91;47.02
6343;BME280;3204;42.698;23.298;2023-02-22T00:18:21;94896.75;;;9.92;46.86
6343;BME280;3204;42.698;23.298;2023-02-22T00:20:47;94893.75;;;9.94;46.71
6343;BME280;3204;42.698;23.298;2023-02-22T00:23:16;94892.22;;;9.88;47.05
6343;BME280;3204;42.698;23.298;2023-02-22T00:25:44;94889.22;;;9.89;46.79
6343;BME280;3204;42.698;23.298;2023-02-22T00:28:09;94891.16;;;9.89;47.54
6343;BME280;3204;42.698;23.298;2023-02-22T00:30:35;94887.78;;;9.70;47.89
6343;BME280;3204;42.698;23.298;2023-02-22T00:33:01;94886.47;;;9.67;48.50
6343;BME280;3204;42.698;23.298;2023-02-22T00:35:28;94890.56;;;9.65;47.89
6343;BME280;3204;42.698;23.298;2023-02-22T00:37:57;94886.16;;;9.69;48.00
6343;BME280;3204;42.698;23.298;2023-02-22T00:40:25;94889.56;;;9.74;47.71
6343;BME280;3204;42.698;23.298;2023-02-22T00:42:51;94884.03;;;9.79;48.19
6343;BME280;3204;42.698;23.298;2023-02-22T00:45:21;94883.84;;;9.76;48.26
6343;BME280;3204;42.698;23.298;2023-02-22T00:47:48;94881.56;;;9.69;47.26
6343;BME280;3204;42.698;23.298;2023-02-22T00:50:14;94877.81;;;9.79;47.59
6343;BME280;3204;42.698;23.298;2023-02-22T00:52:40;94878.03;;;9.69;48.29
6343;BME280;3204;42.698;23.298;2023-02-22T00:55:08;94879.56;;;9.61;48.09
6343;BME280;3204;42.698;23.298;2023-02-22T00:57:33;94869.78;;;9.52;48.83
6343;BME280;3204;42.698;23.298;2023-02-22T01:00:00;94866.31;;;9.60;48.52
6343;BME280;3204;42.698;23.298;2023-02-22T01:02:37;94865.44;;;9.64;48.87
6343;BME280;3204;42.698;23.298;2023-02-22T01:05:03;94867.31;;;9.64;48.71
6343;BME280;3204;42.698;23.298;2023-02-22T01:07:29;94861.44;;;9.48;49.28
6343;BME280;3204;42.698;23.298;2023-02-22T01:09:55;94861.75;;;9.33;49.33
6343;BME280;3204;42.698;23.298;2023-02-22T01:12:20;94859.38;;;9.18;49.95
6343;BME280;3204;42.698;23.298;2023-02-22T01:14:47;94856.19;;;9.16;49.94
6343;BME280;3204;42.698;23.298;2023-02-22T01:17:12;94856.97;;;9.17;49.41
6343;BME280;3204;42.698;23.298;2023-02-22T01:19:38;94857.69;;;9.09;50.09
6343;BME280;3204;42.698;23.298;2023-02-22T01:22:07;94845.97;;;9.00;49.80
6343;BME280;3204;42.698;23.298;2023-02-22T01:24:33;94852.19;;;9.14;50.08
6343;BME280;3204;42.698;23.298;2023-02-22T01:26:58;94845.97;;;9.00;50.28
6343;BME280;3204;42.698;23.298;2023-02-22T01:29:24;94851.88;;;8.88;50.56
6343;BME280;3204;42.698;23.298;2023-02-22T01:31:54;94857.19;;;8.80;50.41
6343;BME280;3204;42.698;23.298;2023-02-22T01:34:21;94854.97;;;8.82;50.88
6343;BME280;3204;42.698;23.298;2023-02-22T01:36:48;94838.84;;;8.77;51.53
6343;BME280;3204;42.698;23.298;2023-02-22T01:39:14;94849.16;;;8.75;51.61
6343;BME280;3204;42.698;23.298;2023-02-22T01:41:44;94849.09;;;8.80;51.83
6343;BME280;3204;42.698;23.298;2023-02-22T01:46:56;94843.53;;;8.58;51.80
6343;BME280;3204;42.698;23.298;2023-02-22T01:49:28;94858.16;;;8.57;52.21
6343;BME280;3204;42.698;23.298;2023-02-22T01:51:56;94860.78;;;8.62;51.41
6343;BME280;3204;42.698;23.298;2023-02-22T01:54:30;94853.34;;;8.54;52.36
6343;BME280;3204;42.698;23.298;2023-02-22T01:56:58;94848.13;;;8.57;51.35
6343;BME280;3204;42.698;23.298;2023-02-22T01:59:32;94859.44;;;8.46;52.77
6343;BME280;3204;42.698;23.298;2023-02-22T02:01:59;94846.72;;;8.33;52.91
6343;BME280;3204;42.698;23.298;2023-02-22T02:04:25;94848.81;;;8.36;52.42
6343;BME280;3204;42.698;23.298;2023-02-22T02:06:52;94857.66;;;8.23;53.83
6343;BME280;3204;42.698;23.298;2023-02-22T02:09:34;94860.91;;;8.25;53.17
6343;BME280;3204;42.698;23.298;2023-02-22T02:12:01;94859.69;;;8.31;53.56
6343;BME280;3204;42.698;23.298;2023-02-22T02:14:29;94862.84;;;8.19;53.86
6343;BME280;3204;42.698;23.298;2023-02-22T02:16:59;94856.81;;;8.41;52.91
6343;BME280;3204;42.698;23.298;2023-02-22T02:19:40;94855.22;;;8.40;53.14
6343;BME280;3204;42.698;23.298;2023-02-22T02:25:15;94866.16;;;7.98;54.78
6343;BME280;3204;42.698;23.298;2023-02-22T02:33:24;94857.28;;;7.79;54.91
6343;BME280;3204;42.698;23.298;2023-02-22T02:41:15;94874.59;;;7.78;55.01
6343;BME280;3204;42.698;23.298;2023-02-22T02:46:31;94867.75;;;7.67;55.03
6343;BME280;3204;42.698;23.298;2023-02-22T02:49:02;94871.59;;;7.79;55.13
6343;BME280;3204;42.698;23.298;2023-02-22T02:51:34;94869.84;;;7.70;55.14
6343;BME280;3204;42.698;23.298;2023-02-22T02:54:02;94876.34;;;7.69;55.28
6343;BME280;3204;42.698;23.298;2023-02-22T02:56:28;94871.22;;;7.67;55.64
6343;BME280;3204;42.698;23.298;2023-02-22T02:58:55;94871.31;;;7.62;55.79
6343;BME280;3204;42.698;23.298;2023-02-22T03:09:58;94877.50;;;7.44;56.34
6343;BME280;3204;42.698;23.298;2023-02-22T03:12:37;94880.78;;;7.41;56.53
6343;BME280;3204;42.698;23.298;2023-02-22T03:18:46;94874.66;;;7.36;56.54
6343;BME280;3204;42.698;23.298;2023-02-22T03:21:44;94872.16;;;7.39;56.57
6343;BME280;3204;42.698;23.298;2023-02-22T03:24:26;94880.13;;;7.49;55.71
6343;BME280;3204;42.698;23.298;2023-02-22T03:27:15;94875.88;;;7.43;56.37
6343;BME280;3204;42.698;23.298;2023-02-22T03:29:46;94871.22;;;7.49;55.83
6343;BME280;3204;42.698;23.298;2023-02-22T03:32:20;94870.72;;;7.47;55.85
6343;BME280;3204;42.698;23.298;2023-02-22T03:34:55;94877.38;;;7.54;56.22
6343;BME280;3204;42.698;23.298;2023-02-22T03:37:28;94875.59;;;7.45;56.26
6343;BME280;3204;42.698;23.298;2023-02-22T03:39:59;94870.13;;;7.50;56.12
6343;BME280;3204;42.698;23.298;2023-02-22T03:42:28;94875.75;;;7.53;55.90
6343;BME280;3204;42.698;23.298;2023-02-22T03:44:58;94872.97;;;7.77;56.29
6343;BME280;3204;42.698;23.298;2023-02-22T03:47:36;94869.63;;;7.66;56.79
6343;BME280;3204;42.698;23.298;2023-02-22T03:50:08;94878.69;;;7.57;56.50
6343;BME280;3204;42.698;23.298;2023-02-22T03:52:35;94873.22;;;7.62;56.78
6343;BME280;3204;42.698;23.298;2023-02-22T03:55:03;94873.78;;;7.59;57.50
6343;BME280;3204;42.698;23.298;2023-02-22T03:57:37;94876.19;;;7.60;57.36
6343;BME280;3204;42.698;23.298;2023-02-22T04:00:05;94876.56;;;7.54;56.66
6343;BME280;3204;42.698;23.298;2023-02-22T04:02:31;94871.53;;;7.47;57.14
6343;BME280;3204;42.698;23.298;2023-02-22T04:04:57;94872.63;;;7.46;56.54
6343;BME280;3204;42.698;23.298;2023-02-22T04:07:23;94871.53;;;7.47;56.88
6343;BME280;3204;42.698;23.298;2023-02-22T04:09:48;94878.31;;;7.45;56.73
6343;BME280;3204;42.698;23.298;2023-02-22T04:12:14;94877.84;;;7.75;56.39
6343;BME280;3204;42.698;23.298;2023-02-22T04:14:39;94876.00;;;7.57;56.80
6343;BME280;3204;42.698;23.298;2023-02-22T04:17:04;94874.28;;;7.42;57.33
6343;BME280;3204;42.698;23.298;2023-02-22T04:19:30;94875.59;;;7.63;57.36
6343;BME280;3204;42.698;23.298;2023-02-22T04:21:56;94880.50;;;7.61;57.22
6343;BME280;3204;42.698;23.298;2023-02-22T04:24:21;94889.78;;;7.55;56.99
6343;BME280;3204;42.698;23.298;2023-02-22T04:26:46;94878.09;;;7.41;57.81
6343;BME280;3204;42.698;23.298;2023-02-22T04:29:12;94880.78;;;7.41;57.31
6343;BME280;3204;42.698;23.298;2023-02-22T04:31:38;94887.13;;;7.50;57.82
6343;BME280;3204;42.698;23.298;2023-02-22T04:34:03;94879.53;;;7.52;57.41
6343;BME280;3204;42.698;23.298;2023-02-22T04:36:29;94881.28;;;7.43;57.36
6343;BME280;3204;42.698;23.298;2023-02-22T04:38:57;94888.66;;;7.56;57.63
6343;BME280;3204;42.698;23.298;2023-02-22T04:41:22;94887.16;;;7.27;58.43
6343;BME280;3204;42.698;23.298;2023-02-22T04:43:48;94881.97;;;7.12;59.12
6343;BME280;3204;42.698;23.298;2023-02-22T04:46:14;94884.38;;;7.13;58.96
6343;BME280;3204;42.698;23.298;2023-02-22T04:48:39;94886.75;;;7.38;58.01
6343;BME280;3204;42.698;23.298;2023-02-22T04:51:05;94892.38;;;7.42;58.00
6343;BME280;3204;42.698;23.298;2023-02-22T04:53:31;94887.16;;;7.27;58.10
6343;BME280;3204;42.698;23.298;2023-02-22T04:55:56;94882.31;;;7.29;57.86
6343;BME280;3204;42.698;23.298;2023-02-22T04:58:22;94882.53;;;7.32;57.72
6343;BME280;3204;42.698;23.298;2023-02-22T05:00:47;94882.88;;;7.26;57.67
6343;BME280;3204;42.698;23.298;2023-02-22T05:03:13;94886.22;;;7.18;57.70
6343;BME280;3204;42.698;23.298;2023-02-22T05:05:38;94892.22;;;7.33;57.43
6343;BME280;3204;42.698;23.298;2023-02-22T05:08:04;94891.53;;;7.23;57.97
6343;BME280;3204;42.698;23.298;2023-02-22T05:10:29;94895.13;;;7.37;56.77
6343;BME280;3204;42.698;23.298;2023-02-22T05:12:55;94895.31;;;7.22;57.29
6343;BME280;3204;42.698;23.298;2023-02-22T05:15:21;94893.31;;;7.09;57.41
6343;BME280;3204;42.698;23.298;2023-02-22T05:17:48;94899.56;;;7.28;57.12
6343;BME280;3204;42.698;23.298;2023-02-22T05:20:25;94902.69;;;7.16;56.92
6343;BME280;3204;42.698;23.298;2023-02-22T05:22:53;94908.19;;;7.06;57.17
6343;BME280;3204;42.698;23.298;2023-02-22T05:25:19;94908.66;;;7.13;57.39
6343;BME280;3204;42.698;23.298;2023-02-22T05:27:51;94907.84;;;7.13;56.86
6343;BME280;3204;42.698;23.298;2023-02-22T05:30:22;94908.25;;;7.25;56.64
6343;BME280;3204;42.698;23.298;2023-02-22T05:32:49;94916.75;;;7.13;56.69
6343;BME280;3204;42.698;23.298;2023-02-22T05:35:15;94923.59;;;7.06;56.74
6343;BME280;3204;42.698;23.298;2023-02-22T05:37:40;94919.03;;;7.01;57.05
6343;BME280;3204;42.698;23.298;2023-02-22T05:40:07;94925.25;;;7.02;57.38
6343;BME280;3204;42.698;23.298;2023-02-22T05:42:32;94929.41;;;7.13;57.31
6343;BME280;3204;42.698;23.298;2023-02-22T05:44:58;94928.44;;;7.04;57.19
6343;BME280;3204;42.698;23.298;2023-02-22T05:47:25;94930.13;;;7.00;57.16
6343;BME280;3204;42.698;23.298;2023-02-22T05:49:50;94934.38;;;7.06;56.92
6343;BME280;3204;42.698;23.298;2023-02-22T05:52:15;94935.53;;;7.42;66.69
6343;BME280;3204;42.698;23.298;2023-02-22T05:54:41;94929.19;;;7.33;58.66
6343;BME280;3204;42.698;23.298;2023-02-22T05:57:06;94933.16;;;7.17;58.55
6343;BME280;3204;42.698;23.298;2023-02-22T05:59:32;94942.13;;;7.12;58.50
6343;BME280;3204;42.698;23.298;2023-02-22T06:01:58;94940.78;;;7.10;58.81
6343;BME280;3204;42.698;23.298;2023-02-22T06:04:23;94941.59;;;7.10;57.70
6343;BME280;3204;42.698;23.298;2023-02-22T06:06:48;94942.13;;;7.12;58.64
6343;BME280;3204;42.698;23.298;2023-02-22T06:09:14;94947.78;;;7.11;58.12
6343;BME280;3204;42.698;23.298;2023-02-22T06:11:40;94944.53;;;7.14;57.70
6343;BME280;3204;42.698;23.298;2023-02-22T06:14:05;94943.25;;;7.06;58.50
6343;BME280;3204;42.698;23.298;2023-02-22T06:16:31;94943.78;;;7.08;58.28
6343;BME280;3204;42.698;23.298;2023-02-22T06:18:57;94949.94;;;7.09;58.27
6343;BME280;3204;42.698;23.298;2023-02-22T06:21:24;94942.84;;;7.18;57.90
6343;BME280;3204;42.698;23.298;2023-02-22T06:23:49;94947.66;;;7.21;58.12
6343;BME280;3204;42.698;23.298;2023-02-22T06:26:18;94936.25;;;7.29;57.69
6343;BME280;3204;42.698;23.298;2023-02-22T06:28:45;94942.72;;;7.28;57.58
6343;BME280;3204;42.698;23.298;2023-02-22T06:31:10;94940.78;;;7.33;57.86
6343;BME280;3204;42.698;23.298;2023-02-22T06:33:36;94942.38;;;7.34;57.62
6343;BME280;3204;42.698;23.298;2023-02-22T06:36:01;94940.41;;;7.40;57.63
6343;BME280;3204;42.698;23.298;2023-02-22T06:38:27;94942.25;;;7.44;57.10
6343;BME280;3204;42.698;23.298;2023-02-22T06:40:52;94943.81;;;7.69;56.34
6343;BME280;3204;42.698;23.298;2023-02-22T06:43:20;94951.34;;;7.72;56.45
6343;BME280;3204;42.698;23.298;2023-02-22T06:45:45;94954.47;;;7.79;56.34
6343;BME280;3204;42.698;23.298;2023-02-22T06:48:12;94954.13;;;7.85;55.44
6343;BME280;3204;42.698;23.298;2023-02-22T06:50:37;94958.78;;;7.98;55.63
6343;BME280;3204;42.698;23.298;2023-02-22T06:53:03;94956.38;;;7.97;55.26
6343;BME280;3204;42.698;23.298;2023-02-22T06:55:31;94952.09;;;7.96;55.52
6343;BME280;3204;42.698;23.298;2023-02-22T06:57:57;94951.72;;;8.02;55.55
6343;BME280;3204;42.698;23.298;2023-02-22T07:00:25;94947.19;;;7.98;55.47
6343;BME280;3204;42.698;23.298;2023-02-22T07:02:51;94941.03;;;8.11;55.10
6343;BME280;3204;42.698;23.298;2023-02-22T07:05:19;94947.47;;;8.33;55.40
6343;BME280;3204;42.698;23.298;2023-02-22T07:07:46;94951.66;;;8.58;53.88
6343;BME280;3204;42.698;23.298;2023-02-22T07:10:31;94952.78;;;9.16;52.98
6343;BME280;3204;42.698;23.298;2023-02-22T07:12:57;94948.75;;;9.81;50.48
6343;BME280;3204;42.698;23.298;2023-02-22T07:15:24;94952.28;;;10.17;48.74
6343;BME280;3204;42.698;23.298;2023-02-22T07:17:51;94952.44;;;10.78;48.62
6343;BME280;3204;42.698;23.298;2023-02-22T07:20:17;94951.91;;;11.28;46.58
6343;BME280;3204;42.698;23.298;2023-02-22T07:22:44;94941.72;;;11.73;45.56
6343;BME280;3204;42.698;23.298;2023-02-22T07:25:10;94946.81;;;11.66;45.28
6343;BME280;3204;42.698;23.298;2023-02-22T07:27:37;94954.53;;;11.72;45.10
6343;BME280;3204;42.698;23.298;2023-02-22T07:30:05;94948.94;;;11.86;44.70
6343;BME280;3204;42.698;23.298;2023-02-22T07:32:31;94952.84;;;12.78;43.12
6343;BME280;3204;42.698;23.298;2023-02-22T07:34:56;94944.97;;;13.57;41.82
6343;BME280;3204;42.698;23.298;2023-02-22T07:37:21;94949.53;;;13.73;40.17
6343;BME280;3204;42.698;23.298;2023-02-22T07:39:47;94941.91;;;14.16;40.16
6343;BME280;3204;42.698;23.298;2023-02-22T07:42:12;94944.69;;;14.57;38.92
6343;BME280;3204;42.698;23.298;2023-02-22T07:44:38;94935.31;;;14.99;39.48
6343;BME280;3204;42.698;23.298;2023-02-22T07:47:03;94937.72;;;15.45;38.34
6343;BME280;3204;42.698;23.298;2023-02-22T07:49:29;94940.38;;;16.02;38.09
6343;BME280;3204;42.698;23.298;2023-02-22T07:51:54;94941.69;;;16.56;36.75
6343;BME280;3204;42.698;23.298;2023-02-22T07:54:20;94940.28;;;17.02;36.01
6343;BME280;3204;42.698;23.298;2023-02-22T07:56:47;94947.91;;;17.08;35.38
6343;BME280;3204;42.698;23.298;2023-02-22T07:59:13;94935.16;;;17.00;35.31
6343;BME280;3204;42.698;23.298;2023-02-22T08:01:39;94935.88;;;16.58;35.16
6343;BME280;3204;42.698;23.298;2023-02-22T08:04:05;94931.59;;;16.20;36.21
6343;BME280;3204;42.698;23.298;2023-02-22T08:06:30;94936.31;;;16.59;35.74
6343;BME280;3204;42.698;23.298;2023-02-22T08:08:56;94930.84;;;16.59;35.63
6343;BME280;3204;42.698;23.298;2023-02-22T08:11:23;94930.97;;;16.51;35.40
6343;BME280;3204;42.698;23.298;2023-02-22T08:13:48;94931.09;;;16.54;35.85
6343;BME280;3204;42.698;23.298;2023-02-22T08:16:14;94927.91;;;16.52;35.84
6343;BME280;3204;42.698;23.298;2023-02-22T08:18:40;94923.84;;;17.29;35.05
6343;BME280;3204;42.698;23.298;2023-02-22T08:21:06;94923.25;;;17.51;34.76
6343;BME280;3204;42.698;23.298;2023-02-22T08:23:31;94925.56;;;17.80;33.98
6343;BME280;3204;42.698;23.298;2023-02-22T08:26:06;94928.22;;;18.08;33.89
6343;BME280;3204;42.698;23.298;2023-02-22T08:28:32;94929.69;;;18.36;33.42
6343;BME280;3204;42.698;23.298;2023-02-22T08:30:58;94926.88;;;18.02;33.38
6343;BME280;3204;42.698;23.298;2023-02-22T08:33:23;94931.47;;;18.44;32.50
6343;BME280;3204;42.698;23.298;2023-02-22T08:35:49;94930.78;;;18.16;33.21
6343;BME280;3204;42.698;23.298;2023-02-22T08:38:22;94922.88;;;18.65;32.58
6343;BME280;3204;42.698;23.298;2023-02-22T08:40:48;94922.53;;;18.66;33.14
6343;BME280;3204;42.698;23.298;2023-02-22T08:43:14;94919.59;;;19.54;32.26
6343;BME280;3204;42.698;23.298;2023-02-22T08:45:40;94915.00;;;20.07;31.44
6343;BME280;3204;42.698;23.298;2023-02-22T08:48:06;94915.59;;;20.16;30.99
6343;BME280;3204;42.698;23.298;2023-02-22T08:50:32;94911.03;;;20.04;31.35
6343;BME280;3204;42.698;23.298;2023-02-22T08:52:59;94904.34;;;20.83;30.82
6343;BME280;3204;42.698;23.298;2023-02-22T08:55:28;94914.22;;;21.14;30.60
6343;BME280;3204;42.698;23.298;2023-02-22T08:57:56;94912.63;;;21.46;30.39
6343;BME280;3204;42.698;23.298;2023-02-22T09:00:22;94906.09;;;22.01;29.44
6343;BME280;3204;42.698;23.298;2023-02-22T09:02:51;94906.66;;;22.24;29.19
6343;BME280;3204;42.698;23.298;2023-02-22T09:05:17;94904.31;;;22.26;29.31
6343;BME280;3204;42.698;23.298;2023-02-22T09:07:43;94907.94;;;22.37;29.08
6343;BME280;3204;42.698;23.298;2023-02-22T09:10:12;94904.78;;;22.38;28.96
6343;BME280;3204;42.698;23.298;2023-02-22T09:12:40;94906.97;;;22.66;28.76
6343;BME280;3204;42.698;23.298;2023-02-22T09:15:06;94901.44;;;22.62;28.83
6343;BME280;3204;42.698;23.298;2023-02-22T09:17:31;94896.63;;;23.27;28.54
6343;BME280;3204;42.698;23.298;2023-02-22T09:19:57;94899.38;;;22.52;28.37
6343;BME280;3204;42.698;23.298;2023-02-22T09:22:22;94903.50;;;22.25;29.05
6343;BME280;3204;42.698;23.298;2023-02-22T09:24:48;94894.31;;;22.58;29.02
6343;BME280;3204;42.698;23.298;2023-02-22T09:27:15;94899.19;;;22.89;28.53
6343;BME280;3204;42.698;23.298;2023-02-22T09:29:40;94891.38;;;23.05;28.65
6343;BME280;3204;42.698;23.298;2023-02-22T09:32:06;94890.72;;;23.29;28.17
6343;BME280;3204;42.698;23.298;2023-02-22T09:34:32;94889.69;;;22.79;28.46
6343;BME280;3204;42.698;23.298;2023-02-22T09:36:59;94889.81;;;23.14;28.48
6343;BME280;3204;42.698;23.298;2023-02-22T09:39:25;94888.25;;;23.17;28.32
6343;BME280;3204;42.698;23.298;2023-02-22T09:42:33;94884.34;;;21.59;29.67
6343;BME280;3204;42.698;23.298;2023-02-22T09:45:13;94879.81;;;21.37;30.23
6343;BME280;3204;42.698;23.298;2023-02-22T09:47:51;94881.56;;;21.56;30.32
6343;BME280;3204;42.698;23.298;2023-02-22T09:50:25;94884.38;;;21.99;29.27
6343;BME280;3204;42.698;23.298;2023-02-22T09:52:58;94888.34;;;22.02;29.91
6343;BME280;3204;42.698;23.298;2023-02-22T09:55:35;94879.78;;;22.21;29.22
6343;BME280;3204;42.698;23.298;2023-02-22T09:58:06;94878.50;;;22.62;28.81
6343;BME280;3204;42.698;23.298;2023-02-22T10:00:36;94877.00;;;22.75;28.97
6343;BME280;3204;42.698;23.298;2023-02-22T10:05:58;94873.22;;;23.14;28.12
6343;BME280;3204;42.698;23.298;2023-02-22T10:08:28;94871.72;;;23.27;27.92
6343;BME280;3204;42.698;23.298;2023-02-22T10:17:18;94850.25;;;23.03;28.06
6343;BME280;3204;42.698;23.298;2023-02-22T10:19:59;94844.97;;;22.70;28.03
6343;BME280;3204;42.698;23.298;2023-02-22T10:22:56;94833.31;;;20.73;30.24
6343;BME280;3204;42.698;23.298;2023-02-22T10:25:26;94832.41;;;19.58;32.10
6343;BME280;3204;42.698;23.298;2023-02-22T10:28:09;94820.66;;;19.39;32.53
6343;BME280;3204;42.698;23.298;2023-02-22T10:30:48;94825.91;;;18.83;33.57
6343;BME280;3204;42.698;23.298;2023-02-22T10:33:23;94814.28;;;19.12;32.82
6343;BME280;3204;42.698;23.298;2023-02-22T10:35:53;94806.75;;;19.28;32.31
6343;BME280;3204;42.698;23.298;2023-02-22T10:38:27;94807.13;;;19.08;33.09
6343;BME280;3204;42.698;23.298;2023-02-22T10:43:37;94795.03;;;19.35;33.07
6343;BME280;3204;42.698;23.298;2023-02-22T10:46:05;94796.75;;;19.20;33.04
6343;BME280;3204;42.698;23.298;2023-02-22T10:48:34;94787.31;;;18.99;32.83
6343;BME280;3204;42.698;23.298;2023-02-22T10:51:04;94785.59;;;18.91;33.39
6343;BME280;3204;42.698;23.298;2023-02-22T10:53:30;94783.88;;;18.83;33.69
6343;BME280;3204;42.698;23.298;2023-02-22T10:56:18;94777.44;;;18.75;33.61
6343;BME280;3204;42.698;23.298;2023-02-22T10:58:56;94766.06;;;18.54;34.15
6343;BME280;3204;42.698;23.298;2023-02-22T11:04:04;94763.13;;;18.09;34.95
6343;BME280;3204;42.698;23.298;2023-02-22T11:06:33;94765.09;;;17.74;35.21
6343;BME280;3204;42.698;23.298;2023-02-22T11:11:34;94756.03;;;17.55;35.88
6343;BME280;3204;42.698;23.298;2023-02-22T11:14:02;94755.69;;;17.56;35.64
6343;BME280;3204;42.698;23.298;2023-02-22T11:16:41;94754.00;;;17.67;35.37
6343;BME280;3204;42.698;23.298;2023-02-22T11:19:27;94747.84;;;17.74;35.00
6343;BME280;3204;42.698;23.298;2023-02-22T11:22:08;94744.84;;;17.79;34.88
6343;BME280;3204;42.698;23.298;2023-02-22T11:25:02;94737.91;;;17.85;34.74
6343;BME280;3204;42.698;23.298;2023-02-22T11:27:41;94739.16;;;17.87;34.70
6343;BME280;3204;42.698;23.298;2023-02-22T11:30:32;94733.78;;;17.75;34.73
6343;BME280;3204;42.698;23.298;2023-02-22T11:33:20;94735.69;;;17.56;34.74
6343;BME280;3204;42.698;23.298;2023-02-22T11:38:20;94724.09;;;17.62;34.83
6343;BME280;3204;42.698;23.298;2023-02-22T11:41:04;94726.78;;;17.78;34.17
6343;BME280;3204;42.698;23.298;2023-02-22T11:43:30;94717.97;;;17.88;33.77
6343;BME280;3204;42.698;23.298;2023-02-22T11:46:00;94724.78;;;17.94;33.80
6343;BME280;3204;42.698;23.298;2023-02-22T11:48:28;94722.97;;;18.01;33.69
6343;BME280;3204;42.698;23.298;2023-02-22T11:56:18;94701.44;;;18.03;33.42
6343;BME280;3204;42.698;23.298;2023-02-22T12:04:27;94697.53;;;18.04;32.80
6343;BME280;3204;42.698;23.298;2023-02-22T12:07:12;94698.84;;;18.10;32.75
6343;BME280;3204;42.698;23.298;2023-02-22T12:09:45;94690.34;;;17.96;33.17
6343;BME280;3204;42.698;23.298;2023-02-22T12:21:03;94684.03;;;17.96;33.13
6343;BME280;3204;42.698;23.298;2023-02-22T12:23:48;94679.34;;;17.96;32.81
6343;BME280;3204;42.698;23.298;2023-02-22T12:26:34;94679.91;;;18.24;32.45
6343;BME280;3204;42.698;23.298;2023-02-22T12:29:28;94672.75;;;18.20;32.61
6343;BME280;3204;42.698;23.298;2023-02-22T12:32:03;94662.63;;;18.24;32.51
6343;BME280;3204;42.698;23.298;2023-02-22T12:34:46;94675.66;;;18.27;32.55
6343;BME280;3204;42.698;23.298;2023-02-22T12:37:33;94669.34;;;18.45;32.13
6343;BME280;3204;42.698;23.298;2023-02-22T12:51:03;94662.78;;;18.72;31.70
6343;BME280;3204;42.698;23.298;2023-02-22T12:53:34;94668.00;;;19.03;31.09
6343;BME280;3204;42.698;23.298;2023-02-22T13:01:39;94653.63;;;19.36;31.65
6343;BME280;3204;42.698;23.298;2023-02-22T13:04:08;94655.63;;;19.16;30.04
6343;BME280;3204;42.698;23.298;2023-02-22T13:17:33;94648.59;;;20.33;29.90
6343;BME280;3204;42.698;23.298;2023-02-22T13:22:53;94647.28;;;20.60;29.29
6343;BME280;3204;42.698;23.298;2023-02-22T13:28:28;94648.53;;;21.06;28.68
6343;BME280;3204;42.698;23.298;2023-02-22T13:31:11;94654.97;;;21.24;28.80
6343;BME280;3204;42.698;23.298;2023-02-22T13:36:45;94648.13;;;21.62;28.23
6343;BME280;3204;42.698;23.298;2023-02-22T13:39:30;94645.53;;;21.90;28.34
6343;BME280;3204;42.698;23.298;2023-02-22T13:49:46;94639.03;;;22.36;27.81
6343;BME280;3204;42.698;23.298;2023-02-22T13:52:18;94638.31;;;22.50;27.51
6343;BME280;3204;42.698;23.298;2023-02-22T13:54:45;94629.19;;;22.49;27.30
6343;BME280;3204;42.698;23.298;2023-02-22T13:59:46;94631.59;;;22.51;27.16
6343;BME280;3204;42.698;23.298;2023-02-22T14:08:06;94635.75;;;21.38;28.96
6343;BME280;3204;42.698;23.298;2023-02-22T14:13:11;94632.13;;;21.88;28.18
6343;BME280;3204;42.698;23.298;2023-02-22T14:16:16;94629.69;;;21.73;28.64
6343;BME280;3204;42.698;23.298;2023-02-22T14:18:44;94643.47;;;21.69;28.54
6343;BME280;3204;42.698;23.298;2023-02-22T14:21:15;94638.59;;;21.49;28.63
6343;BME280;3204;42.698;23.298;2023-02-22T14:23:45;94638.78;;;21.77;28.19
6343;BME280;3204;42.698;23.298;2023-02-22T14:33:55;94634.09;;;21.23;28.70
6343;BME280;3204;42.698;23.298;2023-02-22T14:36:27;94641.00;;;21.03;29.17
6343;BME280;3204;42.698;23.298;2023-02-22T14:38:55;94637.22;;;21.18;29.37
6343;BME280;3204;42.698;23.298;2023-02-22T14:41:26;94641.66;;;21.33;29.01
6343;BME280;3204;42.698;23.298;2023-02-22T14:43:55;94631.22;;;21.09;28.63
6343;BME280;3204;42.698;23.298;2023-02-22T14:46:25;94622.63;;;20.74;28.31
6343;BME280;3204;42.698;23.298;2023-02-22T14:48:58;94636.03;;;20.36;28.42
6343;BME280;3204;42.698;23.298;2023-02-22T14:51:28;94633.09;;;19.89;29.40
6343;BME280;3204;42.698;23.298;2023-02-22T14:54:01;94621.88;;;20.04;29.40
6343;BME280;3204;42.698;23.298;2023-02-22T14:56:58;94631.88;;;20.16;29.94
6343;BME280;3204;42.698;23.298;2023-02-22T14:59:23;94633.03;;;20.15;29.87
6343;BME280;3204;42.698;23.298;2023-02-22T15:02:11;94628.53;;;20.03;30.27
6343;BME280;3204;42.698;23.298;2023-02-22T15:04:38;94630.25;;;20.11;30.46
6343;BME280;3204;42.698;23.298;2023-02-22T15:07:28;94629.38;;;20.07;30.74
6343;BME280;3204;42.698;23.298;2023-02-22T15:10:16;94630.66;;;19.80;31.56
6343;BME280;3204;42.698;23.298;2023-02-22T15:13:03;94630.63;;;19.51;31.84
6343;BME280;3204;42.698;23.298;2023-02-22T15:15:37;94622.38;;;19.51;32.41
6343;BME280;3204;42.698;23.298;2023-02-22T15:18:03;94624.97;;;19.40;32.69
6343;BME280;3204;42.698;23.298;2023-02-22T15:20:34;94630.84;;;19.13;33.27
6343;BME280;3204;42.698;23.298;2023-02-22T15:23:01;94622.97;;;19.11;33.31
6343;BME280;3204;42.698;23.298;2023-02-22T15:25:28;94626.75;;;18.77;34.03
6343;BME280;3204;42.698;23.298;2023-02-22T15:28:03;94622.94;;;18.63;34.11
6343;BME280;3204;42.698;23.298;2023-02-22T15:30:31;94626.31;;;18.53;34.57
6343;BME280;3204;42.698;23.298;2023-02-22T15:33:16;94626.53;;;18.22;34.98
6343;BME280;3204;42.698;23.298;2023-02-22T15:35:53;94625.22;;;18.16;35.57
6343;BME280;3204;42.698;23.298;2023-02-22T15:38:21;94616.66;;;17.98;35.54
6343;BME280;3204;42.698;23.298;2023-02-22T15:41:01;94629.97;;;17.96;35.81
6343;BME280;3204;42.698;23.298;2023-02-22T15:43:27;94633.59;;;17.81;35.91
6343;BME280;3204;42.698;23.298;2023-02-22T15:45:54;94629.38;;;17.68;36.41